Strathmore, New Jersey
Current Conditions -  °F | °C
As of 4:15 AM on Saturday 22 Nov 2014 (Local Time) from KLDJ Reporting Station
Clear Clear  
Wind Chill: 28°   Ceiling: Unl
Heat Index: 28°   Visibility: 10mi
Dew Point: 15°   Wind: 0mph
Humidity: 59%   Direction: NA
Pressure: 30.52"   Gusts: NA
Location:  40.4118°N, 74.2499°W
Report Text: KLDJ 220915Z AUTO 00000KT 10SM CLR M02/M09 A3052 RMK AO2 T10221093
Loading
Personal Weather Stations






























Interactive Weather Map New forecast layout! Learn more

10-Day Weather Forecast

Advertisements
Track Severe Weather on mobile